sensor_id;sensor_type;location;lat;lon;timestamp;P1;durP1;ratioP1;P2;durP2;ratioP2
57249;SDS011;43102;52.014;-0.680;2023-02-01T00:00:00;12.60;;;4.80;;
57249;SDS011;43102;52.014;-0.680;2023-02-01T00:01:05;12.60;;;4.80;;
57249;SDS011;43102;52.014;-0.680;2023-02-01T00:02:01;12.60;;;4.80;;
57249;SDS011;43102;52.014;-0.680;2023-02-01T00:03:01;12.60;;;4.80;;
57249;SDS011;43102;52.014;-0.680;2023-02-01T00:04:00;12.60;;;4.80;;
57249;SDS011;43102;52.014;-0.680;2023-02-01T00:05:00;12.60;;;4.80;;
57249;SDS011;43102;52.014;-0.680;2023-02-01T00:06:01;12.60;;;4.80;;
57249;SDS011;43102;52.014;-0.680;2023-02-01T00:07:01;12.60;;;4.80;;
57249;SDS011;43102;52.014;-0.680;2023-02-01T00:08:00;12.60;;;4.80;;
57249;SDS011;43102;52.014;-0.680;2023-02-01T00:09:02;12.60;;;4.80;;
57249;SDS011;43102;52.014;-0.680;2023-02-01T00:10:00;12.60;;;4.80;;
57249;SDS011;43102;52.014;-0.680;2023-02-01T00:11:02;12.60;;;4.80;;
57249;SDS011;43102;52.014;-0.680;2023-02-01T00:12:02;12.60;;;4.80;;
57249;SDS011;43102;52.014;-0.680;2023-02-01T00:13:00;12.60;;;4.80;;
57249;SDS011;43102;52.014;-0.680;2023-02-01T00:14:00;12.60;;;4.80;;
57249;SDS011;43102;52.014;-0.680;2023-02-01T00:15:00;12.60;;;4.80;;
57249;SDS011;43102;52.014;-0.680;2023-02-01T00:16:10;12.60;;;4.80;;
57249;SDS011;43102;52.014;-0.680;2023-02-01T00:17:00;12.60;;;4.80;;
57249;SDS011;43102;52.014;-0.680;2023-02-01T00:18:00;12.60;;;4.80;;
57249;SDS011;43102;52.014;-0.680;2023-02-01T00:20:00;12.60;;;4.80;;
57249;SDS011;43102;52.014;-0.680;2023-02-01T00:21:00;12.60;;;4.80;;
57249;SDS011;43102;52.014;-0.680;2023-02-01T00:22:00;12.60;;;4.80;;
57249;SDS011;43102;52.014;-0.680;2023-02-01T00:23:00;12.60;;;4.80;;
57249;SDS011;43102;52.014;-0.680;2023-02-01T00:24:00;9.50;;;3.90;;
57249;SDS011;43102;52.014;-0.680;2023-02-01T00:25:00;9.50;;;3.90;;
57249;SDS011;43102;52.014;-0.680;2023-02-01T00:26:02;9.50;;;3.90;;
57249;SDS011;43102;52.014;-0.680;2023-02-01T00:27:00;9.50;;;3.90;;
57249;SDS011;43102;52.014;-0.680;2023-02-01T00:28:00;9.50;;;3.90;;
57249;SDS011;43102;52.014;-0.680;2023-02-01T00:29:02;9.50;;;3.90;;
57249;SDS011;43102;52.014;-0.680;2023-02-01T00:30:00;9.50;;;3.90;;
57249;SDS011;43102;52.014;-0.680;2023-02-01T00:31:02;9.50;;;3.90;;
57249;SDS011;43102;52.014;-0.680;2023-02-01T00:32:00;9.50;;;3.90;;
57249;SDS011;43102;52.014;-0.680;2023-02-01T00:33:00;9.50;;;3.90;;
57249;SDS011;43102;52.014;-0.680;2023-02-01T00:34:00;9.50;;;3.90;;
57249;SDS011;43102;52.014;-0.680;2023-02-01T00:35:00;9.50;;;3.90;;
57249;SDS011;43102;52.014;-0.680;2023-02-01T00:36:04;9.50;;;3.90;;
57249;SDS011;43102;52.014;-0.680;2023-02-01T00:37:00;9.50;;;3.90;;
57249;SDS011;43102;52.014;-0.680;2023-02-01T00:38:00;9.50;;;3.90;;
57249;SDS011;43102;52.014;-0.680;2023-02-01T00:39:00;9.50;;;3.90;;
57249;SDS011;43102;52.014;-0.680;2023-02-01T00:40:00;9.50;;;3.90;;
57249;SDS011;43102;52.014;-0.680;2023-02-01T00:41:06;9.50;;;3.90;;
57249;SDS011;43102;52.014;-0.680;2023-02-01T00:42:01;9.50;;;3.90;;
57249;SDS011;43102;52.014;-0.680;2023-02-01T00:43:00;9.50;;;3.90;;
57249;SDS011;43102;52.014;-0.680;2023-02-01T00:44:01;9.50;;;3.90;;
57249;SDS011;43102;52.014;-0.680;2023-02-01T00:45:00;9.50;;;3.90;;
57249;SDS011;43102;52.014;-0.680;2023-02-01T00:46:01;9.50;;;3.90;;
57249;SDS011;43102;52.014;-0.680;2023-02-01T00:47:01;9.50;;;3.90;;
57249;SDS011;43102;52.014;-0.680;2023-02-01T00:48:00;9.50;;;3.90;;
57249;SDS011;43102;52.014;-0.680;2023-02-01T00:49:00;9.50;;;3.90;;
57249;SDS011;43102;52.014;-0.680;2023-02-01T00:50:00;9.50;;;3.90;;
57249;SDS011;43102;52.014;-0.680;2023-02-01T00:51:02;9.50;;;3.90;;
57249;SDS011;43102;52.014;-0.680;2023-02-01T00:52:00;9.50;;;3.90;;
57249;SDS011;43102;52.014;-0.680;2023-02-01T00:53:00;9.50;;;3.90;;
57249;SDS011;43102;52.014;-0.680;2023-02-01T00:54:00;10.90;;;4.10;;
57249;SDS011;43102;52.014;-0.680;2023-02-01T00:55:00;10.90;;;4.10;;
57249;SDS011;43102;52.014;-0.680;2023-02-01T00:56:00;10.90;;;4.10;;
57249;SDS011;43102;52.014;-0.680;2023-02-01T00:57:00;10.90;;;4.10;;
57249;SDS011;43102;52.014;-0.680;2023-02-01T00:58:00;10.90;;;4.10;;
57249;SDS011;43102;52.014;-0.680;2023-02-01T00:59:00;10.90;;;4.10;;
57249;SDS011;43102;52.014;-0.680;2023-02-01T01:00:00;10.90;;;4.10;;
57249;SDS011;43102;52.014;-0.680;2023-02-01T01:01:04;10.90;;;4.10;;
57249;SDS011;43102;52.014;-0.680;2023-02-01T01:02:00;10.90;;;4.10;;
57249;SDS011;43102;52.014;-0.680;2023-02-01T01:03:00;10.90;;;4.10;;
57249;SDS011;43102;52.014;-0.680;2023-02-01T01:04:00;10.90;;;4.10;;
57249;SDS011;43102;52.014;-0.680;2023-02-01T01:05:00;10.90;;;4.10;;
57249;SDS011;43102;52.014;-0.680;2023-02-01T01:06:03;10.90;;;4.10;;
57249;SDS011;43102;52.014;-0.680;2023-02-01T01:07:00;10.90;;;4.10;;
57249;SDS011;43102;52.014;-0.680;2023-02-01T01:08:00;10.90;;;4.10;;
57249;SDS011;43102;52.014;-0.680;2023-02-01T01:09:02;10.90;;;4.10;;
57249;SDS011;43102;52.014;-0.680;2023-02-01T01:10:00;10.90;;;4.10;;
57249;SDS011;43102;52.014;-0.680;2023-02-01T01:11:12;10.90;;;4.10;;
57249;SDS011;43102;52.014;-0.680;2023-02-01T01:12:02;10.90;;;4.10;;
57249;SDS011;43102;52.014;-0.680;2023-02-01T01:13:00;10.90;;;4.10;;
57249;SDS011;43102;52.014;-0.680;2023-02-01T01:14:00;10.90;;;4.10;;
57249;SDS011;43102;52.014;-0.680;2023-02-01T01:15:00;10.90;;;4.10;;
57249;SDS011;43102;52.014;-0.680;2023-02-01T01:16:03;10.90;;;4.10;;
57249;SDS011;43102;52.014;-0.680;2023-02-01T01:17:00;10.90;;;4.10;;
57249;SDS011;43102;52.014;-0.680;2023-02-01T01:18:00;10.90;;;4.10;;
57249;SDS011;43102;52.014;-0.680;2023-02-01T01:19:02;10.90;;;4.10;;
57249;SDS011;43102;52.014;-0.680;2023-02-01T01:20:00;10.90;;;4.10;;
57249;SDS011;43102;52.014;-0.680;2023-02-01T01:21:01;10.90;;;4.10;;
57249;SDS011;43102;52.014;-0.680;2023-02-01T01:22:00;10.90;;;4.10;;
57249;SDS011;43102;52.014;-0.680;2023-02-01T01:23:00;10.90;;;4.10;;
57249;SDS011;43102;52.014;-0.680;2023-02-01T01:24:00;18.30;;;5.20;;
57249;SDS011;43102;52.014;-0.680;2023-02-01T01:25:00;18.30;;;5.20;;
57249;SDS011;43102;52.014;-0.680;2023-02-01T01:26:04;18.30;;;5.20;;
57249;SDS011;43102;52.014;-0.680;2023-02-01T01:27:00;18.30;;;5.20;;
57249;SDS011;43102;52.014;-0.680;2023-02-01T01:28:00;18.30;;;5.20;;
57249;SDS011;43102;52.014;-0.680;2023-02-01T01:29:00;18.30;;;5.20;;
57249;SDS011;43102;52.014;-0.680;2023-02-01T01:30:00;18.30;;;5.20;;
57249;SDS011;43102;52.014;-0.680;2023-02-01T01:31:00;18.30;;;5.20;;
57249;SDS011;43102;52.014;-0.680;2023-02-01T01:32:00;18.30;;;5.20;;
57249;SDS011;43102;52.014;-0.680;2023-02-01T01:33:00;18.30;;;5.20;;
57249;SDS011;43102;52.014;-0.680;2023-02-01T01:34:01;18.30;;;5.20;;
57249;SDS011;43102;52.014;-0.680;2023-02-01T01:35:00;18.30;;;5.20;;
57249;SDS011;43102;52.014;-0.680;2023-02-01T01:36:00;18.30;;;5.20;;
57249;SDS011;43102;52.014;-0.680;2023-02-01T01:37:00;18.30;;;5.20;;
57249;SDS011;43102;52.014;-0.680;2023-02-01T01:38:01;18.30;;;5.20;;
57249;SDS011;43102;52.014;-0.680;2023-02-01T01:39:00;18.30;;;5.20;;
57249;SDS011;43102;52.014;-0.680;2023-02-01T01:40:00;18.30;;;5.20;;
57249;SDS011;43102;52.014;-0.680;2023-02-01T01:41:01;18.30;;;5.20;;
57249;SDS011;43102;52.014;-0.680;2023-02-01T01:42:00;18.30;;;5.20;;
57249;SDS011;43102;52.014;-0.680;2023-02-01T01:43:00;18.30;;;5.20;;
57249;SDS011;43102;52.014;-0.680;2023-02-01T01:44:03;18.30;;;5.20;;
57249;SDS011;43102;52.014;-0.680;2023-02-01T01:45:06;18.30;;;5.20;;
57249;SDS011;43102;52.014;-0.680;2023-02-01T01:46:00;18.30;;;5.20;;
57249;SDS011;43102;52.014;-0.680;2023-02-01T01:47:00;18.30;;;5.20;;
57249;SDS011;43102;52.014;-0.680;2023-02-01T01:48:15;18.30;;;5.20;;
57249;SDS011;43102;52.014;-0.680;2023-02-01T01:49:05;18.30;;;5.20;;
57249;SDS011;43102;52.014;-0.680;2023-02-01T01:50:01;18.30;;;5.20;;
57249;SDS011;43102;52.014;-0.680;2023-02-01T01:51:03;18.30;;;5.20;;
57249;SDS011;43102;52.014;-0.680;2023-02-01T01:52:02;18.30;;;5.20;;
57249;SDS011;43102;52.014;-0.680;2023-02-01T01:53:03;18.30;;;5.20;;
57249;SDS011;43102;52.014;-0.680;2023-02-01T01:54:08;18.10;;;5.40;;
57249;SDS011;43102;52.014;-0.680;2023-02-01T01:55:00;18.10;;;5.40;;
57249;SDS011;43102;52.014;-0.680;2023-02-01T01:56:00;18.10;;;5.40;;
57249;SDS011;43102;52.014;-0.680;2023-02-01T01:57:04;18.10;;;5.40;;
57249;SDS011;43102;52.014;-0.680;2023-02-01T01:58:05;18.10;;;5.40;;
57249;SDS011;43102;52.014;-0.680;2023-02-01T01:59:01;18.10;;;5.40;;
57249;SDS011;43102;52.014;-0.680;2023-02-01T02:00:08;18.10;;;5.40;;
57249;SDS011;43102;52.014;-0.680;2023-02-01T02:01:00;18.10;;;5.40;;
57249;SDS011;43102;52.014;-0.680;2023-02-01T02:02:00;18.10;;;5.40;;
57249;SDS011;43102;52.014;-0.680;2023-02-01T02:03:05;18.10;;;5.40;;
57249;SDS011;43102;52.014;-0.680;2023-02-01T02:04:01;18.10;;;5.40;;
57249;SDS011;43102;52.014;-0.680;2023-02-01T02:05:00;18.10;;;5.40;;
57249;SDS011;43102;52.014;-0.680;2023-02-01T02:06:02;18.10;;;5.40;;
57249;SDS011;43102;52.014;-0.680;2023-02-01T02:07:05;18.10;;;5.40;;
57249;SDS011;43102;52.014;-0.680;2023-02-01T02:08:01;18.10;;;5.40;;
57249;SDS011;43102;52.014;-0.680;2023-02-01T02:09:01;18.10;;;5.40;;
57249;SDS011;43102;52.014;-0.680;2023-02-01T02:10:03;18.10;;;5.40;;
57249;SDS011;43102;52.014;-0.680;2023-02-01T02:11:00;18.10;;;5.40;;
57249;SDS011;43102;52.014;-0.680;2023-02-01T02:12:00;18.10;;;5.40;;
57249;SDS011;43102;52.014;-0.680;2023-02-01T02:13:02;18.10;;;5.40;;
57249;SDS011;43102;52.014;-0.680;2023-02-01T02:14:01;18.10;;;5.40;;
57249;SDS011;43102;52.014;-0.680;2023-02-01T02:15:00;18.10;;;5.40;;
57249;SDS011;43102;52.014;-0.680;2023-02-01T02:18:08;18.10;;;5.40;;
57249;SDS011;43102;52.014;-0.680;2023-02-01T02:21:14;18.10;;;5.40;;
57249;SDS011;43102;52.014;-0.680;2023-02-01T02:24:05;12.70;;;4.40;;
57249;SDS011;43102;52.014;-0.680;2023-02-01T02:25:12;12.70;;;4.40;;
57249;SDS011;43102;52.014;-0.680;2023-02-01T02:26:06;12.70;;;4.40;;
57249;SDS011;43102;52.014;-0.680;2023-02-01T02:28:16;12.70;;;4.40;;
57249;SDS011;43102;52.014;-0.680;2023-02-01T02:29:08;12.70;;;4.40;;
57249;SDS011;43102;52.014;-0.680;2023-02-01T02:30:16;12.70;;;4.40;;
57249;SDS011;43102;52.014;-0.680;2023-02-01T02:33:21;12.70;;;4.40;;
57249;SDS011;43102;52.014;-0.680;2023-02-01T02:36:07;12.70;;;4.40;;
57249;SDS011;43102;52.014;-0.680;2023-02-01T02:37:14;12.70;;;4.40;;
57249;SDS011;43102;52.014;-0.680;2023-02-01T02:38:11;12.70;;;4.40;;
57249;SDS011;43102;52.014;-0.680;2023-02-01T02:40:14;12.70;;;4.40;;
57249;SDS011;43102;52.014;-0.680;2023-02-01T02:41:16;12.70;;;4.40;;
57249;SDS011;43102;52.014;-0.680;2023-02-01T02:43:15;12.70;;;4.40;;
57249;SDS011;43102;52.014;-0.680;2023-02-01T02:44:21;12.70;;;4.40;;
57249;SDS011;43102;52.014;-0.680;2023-02-01T02:46:33;12.70;;;4.40;;
57249;SDS011;43102;52.014;-0.680;2023-02-01T02:47:17;12.70;;;4.40;;
57249;SDS011;43102;52.014;-0.680;2023-02-01T02:48:13;12.70;;;4.40;;
57249;SDS011;43102;52.014;-0.680;2023-02-01T02:52:16;12.70;;;4.40;;
57249;SDS011;43102;52.014;-0.680;2023-02-01T02:53:15;12.70;;;4.40;;
57249;SDS011;43102;52.014;-0.680;2023-02-01T02:54:16;13.20;;;4.90;;
57249;SDS011;43102;52.014;-0.680;2023-02-01T02:55:03;13.20;;;4.90;;
57249;SDS011;43102;52.014;-0.680;2023-02-01T02:56:12;13.20;;;4.90;;
57249;SDS011;43102;52.014;-0.680;2023-02-01T02:57:13;13.20;;;4.90;;
57249;SDS011;43102;52.014;-0.680;2023-02-01T02:58:10;13.20;;;4.90;;
57249;SDS011;43102;52.014;-0.680;2023-02-01T02:59:14;13.20;;;4.90;;
57249;SDS011;43102;52.014;-0.680;2023-02-01T03:00:12;13.20;;;4.90;;
57249;SDS011;43102;52.014;-0.680;2023-02-01T03:01:11;13.20;;;4.90;;
57249;SDS011;43102;52.014;-0.680;2023-02-01T03:02:10;13.20;;;4.90;;
57249;SDS011;43102;52.014;-0.680;2023-02-01T03:03:10;13.20;;;4.90;;
57249;SDS011;43102;52.014;-0.680;2023-02-01T03:04:08;13.20;;;4.90;;
57249;SDS011;43102;52.014;-0.680;2023-02-01T03:05:00;13.20;;;4.90;;
57249;SDS011;43102;52.014;-0.680;2023-02-01T03:06:00;13.20;;;4.90;;
57249;SDS011;43102;52.014;-0.680;2023-02-01T03:07:15;13.20;;;4.90;;
57249;SDS011;43102;52.014;-0.680;2023-02-01T03:08:09;13.20;;;4.90;;
57249;SDS011;43102;52.014;-0.680;2023-02-01T03:09:04;13.20;;;4.90;;
57249;SDS011;43102;52.014;-0.680;2023-02-01T03:10:05;13.20;;;4.90;;
57249;SDS011;43102;52.014;-0.680;2023-02-01T03:11:08;13.20;;;4.90;;
57249;SDS011;43102;52.014;-0.680;2023-02-01T03:12:14;13.20;;;4.90;;
57249;SDS011;43102;52.014;-0.680;2023-02-01T03:13:07;13.20;;;4.90;;
57249;SDS011;43102;52.014;-0.680;2023-02-01T03:14:02;13.20;;;4.90;;
57249;SDS011;43102;52.014;-0.680;2023-02-01T03:15:07;13.20;;;4.90;;
57249;SDS011;43102;52.014;-0.680;2023-02-01T03:17:06;13.20;;;4.90;;
57249;SDS011;43102;52.014;-0.680;2023-02-01T03:18:02;13.20;;;4.90;;
57249;SDS011;43102;52.014;-0.680;2023-02-01T03:19:01;13.20;;;4.90;;
57249;SDS011;43102;52.014;-0.680;2023-02-01T03:20:01;13.20;;;4.90;;
57249;SDS011;43102;52.014;-0.680;2023-02-01T03:21:05;13.20;;;4.90;;
57249;SDS011;43102;52.014;-0.680;2023-02-01T03:22:05;13.20;;;4.90;;
57249;SDS011;43102;52.014;-0.680;2023-02-01T03:23:00;13.20;;;4.90;;
57249;SDS011;43102;52.014;-0.680;2023-02-01T03:24:03;12.90;;;4.60;;
57249;SDS011;43102;52.014;-0.680;2023-02-01T03:25:05;12.90;;;4.60;;
57249;SDS011;43102;52.014;-0.680;2023-02-01T03:26:02;12.90;;;4.60;;
57249;SDS011;43102;52.014;-0.680;2023-02-01T03:27:08;12.90;;;4.60;;
57249;SDS011;43102;52.014;-0.680;2023-02-01T03:28:04;12.90;;;4.60;;
57249;SDS011;43102;52.014;-0.680;2023-02-01T03:29:10;12.90;;;4.60;;
57249;SDS011;43102;52.014;-0.680;2023-02-01T03:31:01;12.90;;;4.60;;
57249;SDS011;43102;52.014;-0.680;2023-02-01T03:32:00;12.90;;;4.60;;
57249;SDS011;43102;52.014;-0.680;2023-02-01T03:33:02;12.90;;;4.60;;
57249;SDS011;43102;52.014;-0.680;2023-02-01T03:34:00;12.90;;;4.60;;
57249;SDS011;43102;52.014;-0.680;2023-02-01T03:35:00;12.90;;;4.60;;
57249;SDS011;43102;52.014;-0.680;2023-02-01T03:36:14;12.90;;;4.60;;
57249;SDS011;43102;52.014;-0.680;2023-02-01T03:37:04;12.90;;;4.60;;
57249;SDS011;43102;52.014;-0.680;2023-02-01T03:38:07;12.90;;;4.60;;
57249;SDS011;43102;52.014;-0.680;2023-02-01T03:39:10;12.90;;;4.60;;
57249;SDS011;43102;52.014;-0.680;2023-02-01T03:40:04;12.90;;;4.60;;
57249;SDS011;43102;52.014;-0.680;2023-02-01T03:42:04;12.90;;;4.60;;
57249;SDS011;43102;52.014;-0.680;2023-02-01T03:43:04;12.90;;;4.60;;
57249;SDS011;43102;52.014;-0.680;2023-02-01T03:44:04;12.90;;;4.60;;
57249;SDS011;43102;52.014;-0.680;2023-02-01T03:45:08;12.90;;;4.60;;
57249;SDS011;43102;52.014;-0.680;2023-02-01T03:46:04;12.90;;;4.60;;
57249;SDS011;43102;52.014;-0.680;2023-02-01T03:47:12;12.90;;;4.60;;
57249;SDS011;43102;52.014;-0.680;2023-02-01T03:48:01;12.90;;;4.60;;
57249;SDS011;43102;52.014;-0.680;2023-02-01T03:49:05;12.90;;;4.60;;
57249;SDS011;43102;52.014;-0.680;2023-02-01T03:50:04;12.90;;;4.60;;
57249;SDS011;43102;52.014;-0.680;2023-02-01T03:51:03;12.90;;;4.60;;
57249;SDS011;43102;52.014;-0.680;2023-02-01T03:52:01;12.90;;;4.60;;
57249;SDS011;43102;52.014;-0.680;2023-02-01T03:53:08;12.90;;;4.60;;
57249;SDS011;43102;52.014;-0.680;2023-02-01T03:54:02;13.10;;;4.40;;
57249;SDS011;43102;52.014;-0.680;2023-02-01T03:55:01;13.10;;;4.40;;
57249;SDS011;43102;52.014;-0.680;2023-02-01T03:56:00;13.10;;;4.40;;
57249;SDS011;43102;52.014;-0.680;2023-02-01T03:57:04;13.10;;;4.40;;
57249;SDS011;43102;52.014;-0.680;2023-02-01T03:58:07;13.10;;;4.40;;
57249;SDS011;43102;52.014;-0.680;2023-02-01T03:59:00;13.10;;;4.40;;
57249;SDS011;43102;52.014;-0.680;2023-02-01T04:00:09;13.10;;;4.40;;
57249;SDS011;43102;52.014;-0.680;2023-02-01T04:01:00;13.10;;;4.40;;
57249;SDS011;43102;52.014;-0.680;2023-02-01T04:02:00;13.10;;;4.40;;
57249;SDS011;43102;52.014;-0.680;2023-02-01T04:03:02;13.10;;;4.40;;
57249;SDS011;43102;52.014;-0.680;2023-02-01T04:04:00;13.10;;;4.40;;
57249;SDS011;43102;52.014;-0.680;2023-02-01T04:05:00;13.10;;;4.40;;
57249;SDS011;43102;52.014;-0.680;2023-02-01T04:06:00;13.10;;;4.40;;
57249;SDS011;43102;52.014;-0.680;2023-02-01T04:07:00;13.10;;;4.40;;
57249;SDS011;43102;52.014;-0.680;2023-02-01T04:08:00;13.10;;;4.40;;
57249;SDS011;43102;52.014;-0.680;2023-02-01T04:09:00;13.10;;;4.40;;
57249;SDS011;43102;52.014;-0.680;2023-02-01T04:10:00;13.10;;;4.40;;
57249;SDS011;43102;52.014;-0.680;2023-02-01T04:11:00;13.10;;;4.40;;
57249;SDS011;43102;52.014;-0.680;2023-02-01T04:12:00;13.10;;;4.40;;
57249;SDS011;43102;52.014;-0.680;2023-02-01T04:13:00;13.10;;;4.40;;
57249;SDS011;43102;52.014;-0.680;2023-02-01T04:14:04;13.10;;;4.40;;
57249;SDS011;43102;52.014;-0.680;2023-02-01T04:15:00;13.10;;;4.40;;
57249;SDS011;43102;52.014;-0.680;2023-02-01T04:16:00;13.10;;;4.40;;
57249;SDS011;43102;52.014;-0.680;2023-02-01T04:17:00;13.10;;;4.40;;
57249;SDS011;43102;52.014;-0.680;2023-02-01T04:18:00;13.10;;;4.40;;
57249;SDS011;43102;52.014;-0.680;2023-02-01T04:19:00;13.10;;;4.40;;
57249;SDS011;43102;52.014;-0.680;2023-02-01T04:20:00;13.10;;;4.40;;
57249;SDS011;43102;52.014;-0.680;2023-02-01T04:21:02;13.10;;;4.40;;
57249;SDS011;43102;52.014;-0.680;2023-02-01T04:22:00;13.10;;;4.40;;
57249;SDS011;43102;52.014;-0.680;2023-02-01T04:23:02;13.10;;;4.40;;
57249;SDS011;43102;52.014;-0.680;2023-02-01T04:24:00;13.90;;;4.50;;
57249;SDS011;43102;52.014;-0.680;2023-02-01T04:25:01;13.90;;;4.50;;
57249;SDS011;43102;52.014;-0.680;2023-02-01T04:26:02;13.90;;;4.50;;
57249;SDS011;43102;52.014;-0.680;2023-02-01T04:27:02;13.90;;;4.50;;
57249;SDS011;43102;52.014;-0.680;2023-02-01T04:28:00;13.90;;;4.50;;
57249;SDS011;43102;52.014;-0.680;2023-02-01T04:29:00;13.90;;;4.50;;
57249;SDS011;43102;52.014;-0.680;2023-02-01T04:30:00;13.90;;;4.50;;
57249;SDS011;43102;52.014;-0.680;2023-02-01T04:31:00;13.90;;;4.50;;
57249;SDS011;43102;52.014;-0.680;2023-02-01T04:32:00;13.90;;;4.50;;
57249;SDS011;43102;52.014;-0.680;2023-02-01T04:33:03;13.90;;;4.50;;
57249;SDS011;43102;52.014;-0.680;2023-02-01T04:34:00;13.90;;;4.50;;
57249;SDS011;43102;52.014;-0.680;2023-02-01T04:35:00;13.90;;;4.50;;
57249;SDS011;43102;52.014;-0.680;2023-02-01T04:36:00;13.90;;;4.50;;
57249;SDS011;43102;52.014;-0.680;2023-02-01T04:37:01;13.90;;;4.50;;
57249;SDS011;43102;52.014;-0.680;2023-02-01T04:38:00;13.90;;;4.50;;
57249;SDS011;43102;52.014;-0.680;2023-02-01T04:39:00;13.90;;;4.50;;
57249;SDS011;43102;52.014;-0.680;2023-02-01T04:40:00;13.90;;;4.50;;
57249;SDS011;43102;52.014;-0.680;2023-02-01T04:41:00;13.90;;;4.50;;
57249;SDS011;43102;52.014;-0.680;2023-02-01T04:42:00;13.90;;;4.50;;
57249;SDS011;43102;52.014;-0.680;2023-02-01T04:43:01;13.90;;;4.50;;
57249;SDS011;43102;52.014;-0.680;2023-02-01T04:44:00;13.90;;;4.50;;
57249;SDS011;43102;52.014;-0.680;2023-02-01T04:45:00;13.90;;;4.50;;
57249;SDS011;43102;52.014;-0.680;2023-02-01T04:46:00;13.90;;;4.50;;
57249;SDS011;43102;52.014;-0.680;2023-02-01T04:47:00;13.90;;;4.50;;
57249;SDS011;43102;52.014;-0.680;2023-02-01T04:48:00;13.90;;;4.50;;
57249;SDS011;43102;52.014;-0.680;2023-02-01T04:49:00;13.90;;;4.50;;
57249;SDS011;43102;52.014;-0.680;2023-02-01T04:50:00;13.90;;;4.50;;
57249;SDS011;43102;52.014;-0.680;2023-02-01T04:51:00;13.90;;;4.50;;
57249;SDS011;43102;52.014;-0.680;2023-02-01T04:52:00;13.90;;;4.50;;
57249;SDS011;43102;52.014;-0.680;2023-02-01T04:53:00;13.90;;;4.50;;
57249;SDS011;43102;52.014;-0.680;2023-02-01T04:54:00;11.40;;;4.40;;
57249;SDS011;43102;52.014;-0.680;2023-02-01T04:55:02;11.40;;;4.40;;
57249;SDS011;43102;52.014;-0.680;2023-02-01T04:56:00;11.40;;;4.40;;
57249;SDS011;43102;52.014;-0.680;2023-02-01T04:57:00;11.40;;;4.40;;
57249;SDS011;43102;52.014;-0.680;2023-02-01T04:58:00;11.40;;;4.40;;
57249;SDS011;43102;52.014;-0.680;2023-02-01T04:59:02;11.40;;;4.40;;
57249;SDS011;43102;52.014;-0.680;2023-02-01T05:00:00;11.40;;;4.40;;
57249;SDS011;43102;52.014;-0.680;2023-02-01T05:01:04;11.40;;;4.40;;
57249;SDS011;43102;52.014;-0.680;2023-02-01T05:02:00;11.40;;;4.40;;
57249;SDS011;43102;52.014;-0.680;2023-02-01T05:03:00;11.40;;;4.40;;
57249;SDS011;43102;52.014;-0.680;2023-02-01T05:04:00;11.40;;;4.40;;
57249;SDS011;43102;52.014;-0.680;2023-02-01T05:05:01;11.40;;;4.40;;
57249;SDS011;43102;52.014;-0.680;2023-02-01T05:06:01;11.40;;;4.40;;
57249;SDS011;43102;52.014;-0.680;2023-02-01T05:07:00;11.40;;;4.40;;
57249;SDS011;43102;52.014;-0.680;2023-02-01T05:08:00;11.40;;;4.40;;
57249;SDS011;43102;52.014;-0.680;2023-02-01T05:09:00;11.40;;;4.40;;
57249;SDS011;43102;52.014;-0.680;2023-02-01T05:10:00;11.40;;;4.40;;
57249;SDS011;43102;52.014;-0.680;2023-02-01T05:11:02;11.40;;;4.40;;
57249;SDS011;43102;52.014;-0.680;2023-02-01T05:12:10;11.40;;;4.40;;
57249;SDS011;43102;52.014;-0.680;2023-02-01T05:13:10;11.40;;;4.40;;
57249;SDS011;43102;52.014;-0.680;2023-02-01T05:14:02;11.40;;;4.40;;
57249;SDS011;43102;52.014;-0.680;2023-02-01T05:15:00;11.40;;;4.40;;
57249;SDS011;43102;52.014;-0.680;2023-02-01T05:16:00;11.40;;;4.40;;
57249;SDS011;43102;52.014;-0.680;2023-02-01T05:17:00;11.40;;;4.40;;
57249;SDS011;43102;52.014;-0.680;2023-02-01T05:18:00;11.40;;;4.40;;
57249;SDS011;43102;52.014;-0.680;2023-02-01T05:19:00;11.40;;;4.40;;
57249;SDS011;43102;52.014;-0.680;2023-02-01T05:20:00;11.40;;;4.40;;
57249;SDS011;43102;52.014;-0.680;2023-02-01T05:21:01;11.40;;;4.40;;
57249;SDS011;43102;52.014;-0.680;2023-02-01T05:22:00;11.40;;;4.40;;
57249;SDS011;43102;52.014;-0.680;2023-02-01T05:23:00;11.40;;;4.40;;
57249;SDS011;43102;52.014;-0.680;2023-02-01T05:24:10;7.00;;;4.00;;
57249;SDS011;43102;52.014;-0.680;2023-02-01T05:25:00;7.00;;;4.00;;
57249;SDS011;43102;52.014;-0.680;2023-02-01T05:26:01;7.00;;;4.00;;
57249;SDS011;43102;52.014;-0.680;2023-02-01T05:27:00;7.00;;;4.00;;
57249;SDS011;43102;52.014;-0.680;2023-02-01T05:28:00;7.00;;;4.00;;
57249;SDS011;43102;52.014;-0.680;2023-02-01T05:29:00;7.00;;;4.00;;
57249;SDS011;43102;52.014;-0.680;2023-02-01T05:30:00;7.00;;;4.00;;
57249;SDS011;43102;52.014;-0.680;2023-02-01T05:31:00;7.00;;;4.00;;
57249;SDS011;43102;52.014;-0.680;2023-02-01T05:32:11;7.00;;;4.00;;
57249;SDS011;43102;52.014;-0.680;2023-02-01T05:33:00;7.00;;;4.00;;
57249;SDS011;43102;52.014;-0.680;2023-02-01T05:34:00;7.00;;;4.00;;
57249;SDS011;43102;52.014;-0.680;2023-02-01T05:35:00;7.00;;;4.00;;
57249;SDS011;43102;52.014;-0.680;2023-02-01T05:36:00;7.00;;;4.00;;
57249;SDS011;43102;52.014;-0.680;2023-02-01T05:37:00;7.00;;;4.00;;
57249;SDS011;43102;52.014;-0.680;2023-02-01T05:38:00;7.00;;;4.00;;
57249;SDS011;43102;52.014;-0.680;2023-02-01T05:39:00;7.00;;;4.00;;
57249;SDS011;43102;52.014;-0.680;2023-02-01T05:40:00;7.00;;;4.00;;
57249;SDS011;43102;52.014;-0.680;2023-02-01T05:41:00;7.00;;;4.00;;
57249;SDS011;43102;52.014;-0.680;2023-02-01T05:42:00;7.00;;;4.00;;
57249;SDS011;43102;52.014;-0.680;2023-02-01T05:43:00;7.00;;;4.00;;
57249;SDS011;43102;52.014;-0.680;2023-02-01T05:44:00;7.00;;;4.00;;
57249;SDS011;43102;52.014;-0.680;2023-02-01T05:45:00;7.00;;;4.00;;
57249;SDS011;43102;52.014;-0.680;2023-02-01T05:46:00;7.00;;;4.00;;
57249;SDS011;43102;52.014;-0.680;2023-02-01T05:47:00;7.00;;;4.00;;
57249;SDS011;43102;52.014;-0.680;2023-02-01T05:48:00;7.00;;;4.00;;
57249;SDS011;43102;52.014;-0.680;2023-02-01T05:49:00;7.00;;;4.00;;
57249;SDS011;43102;52.014;-0.680;2023-02-01T05:50:00;7.00;;;4.00;;
57249;SDS011;43102;52.014;-0.680;2023-02-01T05:51:00;7.00;;;4.00;;
57249;SDS011;43102;52.014;-0.680;2023-02-01T05:52:01;7.00;;;4.00;;
57249;SDS011;43102;52.014;-0.680;2023-02-01T05:53:00;7.00;;;4.00;;
57249;SDS011;43102;52.014;-0.680;2023-02-01T05:54:00;12.20;;;4.10;;
57249;SDS011;43102;52.014;-0.680;2023-02-01T05:55:00;12.20;;;4.10;;
57249;SDS011;43102;52.014;-0.680;2023-02-01T05:56:00;12.20;;;4.10;;
57249;SDS011;43102;52.014;-0.680;2023-02-01T05:57:00;12.20;;;4.10;;
57249;SDS011;43102;52.014;-0.680;2023-02-01T05:58:00;12.20;;;4.10;;
57249;SDS011;43102;52.014;-0.680;2023-02-01T05:59:00;12.20;;;4.10;;
57249;SDS011;43102;52.014;-0.680;2023-02-01T06:00:01;12.20;;;4.10;;
57249;SDS011;43102;52.014;-0.680;2023-02-01T06:01:02;12.20;;;4.10;;
57249;SDS011;43102;52.014;-0.680;2023-02-01T06:02:00;12.20;;;4.10;;
57249;SDS011;43102;52.014;-0.680;2023-02-01T06:03:01;12.20;;;4.10;;
57249;SDS011;43102;52.014;-0.680;2023-02-01T06:04:00;12.20;;;4.10;;
57249;SDS011;43102;52.014;-0.680;2023-02-01T06:05:00;12.20;;;4.10;;
57249;SDS011;43102;52.014;-0.680;2023-02-01T06:06:01;12.20;;;4.10;;
57249;SDS011;43102;52.014;-0.680;2023-02-01T06:07:00;12.20;;;4.10;;
57249;SDS011;43102;52.014;-0.680;2023-02-01T06:08:01;12.20;;;4.10;;
57249;SDS011;43102;52.014;-0.680;2023-02-01T06:09:00;12.20;;;4.10;;
57249;SDS011;43102;52.014;-0.680;2023-02-01T06:10:00;12.20;;;4.10;;
57249;SDS011;43102;52.014;-0.680;2023-02-01T06:11:01;12.20;;;4.10;;
57249;SDS011;43102;52.014;-0.680;2023-02-01T06:12:01;12.20;;;4.10;;